sensor_id;sensor_type;location;lat;lon;timestamp;temperature;humidity
38084;DHT22;23894;51.466;7.444;2022-11-03T00:00:05;12.20;99.90
38084;DHT22;23894;51.466;7.444;2022-11-03T00:02:07;12.20;99.90
38084;DHT22;23894;51.466;7.444;2022-11-03T00:04:11;12.20;99.90
38084;DHT22;23894;51.466;7.444;2022-11-03T00:06:13;12.20;99.90
38084;DHT22;23894;51.466;7.444;2022-11-03T00:08:15;12.20;99.90
38084;DHT22;23894;51.466;7.444;2022-11-03T00:10:15;12.20;99.90
38084;DHT22;23894;51.466;7.444;2022-11-03T00:12:17;12.10;99.90
38084;DHT22;23894;51.466;7.444;2022-11-03T00:14:19;12.10;99.90
38084;DHT22;23894;51.466;7.444;2022-11-03T00:16:20;12.10;99.90
38084;DHT22;23894;51.466;7.444;2022-11-03T00:18:22;12.10;99.90
38084;DHT22;23894;51.466;7.444;2022-11-03T00:20:23;12.10;99.90
38084;DHT22;23894;51.466;7.444;2022-11-03T00:22:25;12.20;99.90
38084;DHT22;23894;51.466;7.444;2022-11-03T00:24:27;12.20;99.90
38084;DHT22;23894;51.466;7.444;2022-11-03T00:26:30;12.20;99.90
38084;DHT22;23894;51.466;7.444;2022-11-03T00:28:33;12.20;99.90
38084;DHT22;23894;51.466;7.444;2022-11-03T00:30:33;12.20;99.90
38084;DHT22;23894;51.466;7.444;2022-11-03T00:32:35;12.20;99.90
38084;DHT22;23894;51.466;7.444;2022-11-03T00:34:37;12.20;99.90
38084;DHT22;23894;51.466;7.444;2022-11-03T00:36:43;12.20;99.90
38084;DHT22;23894;51.466;7.444;2022-11-03T00:38:45;12.20;99.90
38084;DHT22;23894;51.466;7.444;2022-11-03T00:41:01;12.20;99.90
38084;DHT22;23894;51.466;7.444;2022-11-03T00:43:01;12.20;99.90
38084;DHT22;23894;51.466;7.444;2022-11-03T00:45:03;12.30;99.90
38084;DHT22;23894;51.466;7.444;2022-11-03T00:47:05;12.30;99.90
38084;DHT22;23894;51.466;7.444;2022-11-03T00:49:07;12.30;99.90
38084;DHT22;23894;51.466;7.444;2022-11-03T00:51:19;12.30;99.90
38084;DHT22;23894;51.466;7.444;2022-11-03T00:53:20;12.30;99.90
38084;DHT22;23894;51.466;7.444;2022-11-03T00:55:22;12.30;99.90
38084;DHT22;23894;51.466;7.444;2022-11-03T00:57:24;12.30;99.90
38084;DHT22;23894;51.466;7.444;2022-11-03T00:59:26;12.30;99.90
38084;DHT22;23894;51.466;7.444;2022-11-03T01:01:32;12.30;99.90
38084;DHT22;23894;51.466;7.444;2022-11-03T01:03:37;12.30;99.90
38084;DHT22;23894;51.466;7.444;2022-11-03T01:05:43;12.30;99.90
38084;DHT22;23894;51.466;7.444;2022-11-03T01:08:03;12.30;99.90
38084;DHT22;23894;51.466;7.444;2022-11-03T01:10:04;12.30;99.90
38084;DHT22;23894;51.466;7.444;2022-11-03T01:12:15;12.40;99.90
38084;DHT22;23894;51.466;7.444;2022-11-03T01:14:17;12.30;99.90
38084;DHT22;23894;51.466;7.444;2022-11-03T01:16:19;12.40;99.90
38084;DHT22;23894;51.466;7.444;2022-11-03T01:18:21;12.40;99.90
38084;DHT22;23894;51.466;7.444;2022-11-03T01:20:23;12.30;99.90
38084;DHT22;23894;51.466;7.444;2022-11-03T01:22:25;12.40;99.90
38084;DHT22;23894;51.466;7.444;2022-11-03T01:24:26;12.30;99.90
38084;DHT22;23894;51.466;7.444;2022-11-03T01:26:29;12.40;99.90
38084;DHT22;23894;51.466;7.444;2022-11-03T01:28:33;12.40;99.90
38084;DHT22;23894;51.466;7.444;2022-11-03T01:30:34;12.40;99.90
38084;DHT22;23894;51.466;7.444;2022-11-03T01:32:36;12.40;99.90
38084;DHT22;23894;51.466;7.444;2022-11-03T01:34:38;12.40;99.90
38084;DHT22;23894;51.466;7.444;2022-11-03T01:36:41;12.40;99.90
38084;DHT22;23894;51.466;7.444;2022-11-03T01:38:43;12.40;99.90
38084;DHT22;23894;51.466;7.444;2022-11-03T01:40:44;12.40;99.90
38084;DHT22;23894;51.466;7.444;2022-11-03T01:42:46;12.40;99.90
38084;DHT22;23894;51.466;7.444;2022-11-03T01:44:48;12.40;99.90
38084;DHT22;23894;51.466;7.444;2022-11-03T01:47:04;12.40;99.90
38084;DHT22;23894;51.466;7.444;2022-11-03T01:49:26;12.40;99.90
38084;DHT22;23894;51.466;7.444;2022-11-03T01:51:31;12.30;99.90
38084;DHT22;23894;51.466;7.444;2022-11-03T01:53:36;12.40;99.90
38084;DHT22;23894;51.466;7.444;2022-11-03T01:55:42;12.40;99.90
38084;DHT22;23894;51.466;7.444;2022-11-03T01:58:10;12.40;99.90
38084;DHT22;23894;51.466;7.444;2022-11-03T02:00:13;12.30;99.90
38084;DHT22;23894;51.466;7.444;2022-11-03T02:02:15;12.30;99.90
38084;DHT22;23894;51.466;7.444;2022-11-03T02:04:29;12.30;99.90
38084;DHT22;23894;51.466;7.444;2022-11-03T02:06:32;12.30;99.90
38084;DHT22;23894;51.466;7.444;2022-11-03T02:08:48;12.30;99.90
38084;DHT22;23894;51.466;7.444;2022-11-03T02:10:51;12.30;99.90
38084;DHT22;23894;51.466;7.444;2022-11-03T02:12:53;12.30;99.90
38084;DHT22;23894;51.466;7.444;2022-11-03T02:14:59;12.30;99.90
38084;DHT22;23894;51.466;7.444;2022-11-03T02:17:06;12.30;99.90
38084;DHT22;23894;51.466;7.444;2022-11-03T02:21:52;12.30;99.90
38084;DHT22;23894;51.466;7.444;2022-11-03T02:24:17;12.30;99.90
38084;DHT22;23894;51.466;7.444;2022-11-03T02:26:24;12.30;99.90
38084;DHT22;23894;51.466;7.444;2022-11-03T02:28:30;12.30;99.90
38084;DHT22;23894;51.466;7.444;2022-11-03T02:32:56;12.30;99.90
38084;DHT22;23894;51.466;7.444;2022-11-03T02:37:20;12.30;99.90
38084;DHT22;23894;51.466;7.444;2022-11-03T02:39:39;12.30;99.90
38084;DHT22;23894;51.466;7.444;2022-11-03T02:41:42;12.30;99.90
38084;DHT22;23894;51.466;7.444;2022-11-03T02:43:47;12.30;99.90
38084;DHT22;23894;51.466;7.444;2022-11-03T02:45:50;12.30;99.90
38084;DHT22;23894;51.466;7.444;2022-11-03T02:47:57;12.20;99.90
38084;DHT22;23894;51.466;7.444;2022-11-03T02:50:00;12.20;99.90
38084;DHT22;23894;51.466;7.444;2022-11-03T02:52:05;12.30;99.90
38084;DHT22;23894;51.466;7.444;2022-11-03T02:54:25;12.20;99.90
38084;DHT22;23894;51.466;7.444;2022-11-03T02:56:30;12.20;99.90
38084;DHT22;23894;51.466;7.444;2022-11-03T03:03:37;12.20;99.90
38084;DHT22;23894;51.466;7.444;2022-11-03T03:05:41;12.20;99.90
38084;DHT22;23894;51.466;7.444;2022-11-03T03:07:48;12.20;99.90
38084;DHT22;23894;51.466;7.444;2022-11-03T03:10:11;12.20;99.90
38084;DHT22;23894;51.466;7.444;2022-11-03T03:12:16;12.20;99.90
38084;DHT22;23894;51.466;7.444;2022-11-03T03:14:33;12.20;99.90
38084;DHT22;23894;51.466;7.444;2022-11-03T03:16:42;12.20;99.90
38084;DHT22;23894;51.466;7.444;2022-11-03T03:18:50;12.20;99.90
38084;DHT22;23894;51.466;7.444;2022-11-03T03:21:32;12.20;99.90
38084;DHT22;23894;51.466;7.444;2022-11-03T03:23:36;12.20;99.90
38084;DHT22;23894;51.466;7.444;2022-11-03T03:27:54;12.20;99.90
38084;DHT22;23894;51.466;7.444;2022-11-03T03:30:05;12.20;99.90
38084;DHT22;23894;51.466;7.444;2022-11-03T03:32:08;12.20;99.90
38084;DHT22;23894;51.466;7.444;2022-11-03T03:34:11;12.20;99.90
38084;DHT22;23894;51.466;7.444;2022-11-03T03:36:16;12.30;99.90
38084;DHT22;23894;51.466;7.444;2022-11-03T03:38:29;12.30;99.90
38084;DHT22;23894;51.466;7.444;2022-11-03T03:40:35;12.30;99.90
38084;DHT22;23894;51.466;7.444;2022-11-03T03:42:39;12.30;99.90
38084;DHT22;23894;51.466;7.444;2022-11-03T03:44:44;12.30;99.90
38084;DHT22;23894;51.466;7.444;2022-11-03T03:47:02;12.30;99.90
38084;DHT22;23894;51.466;7.444;2022-11-03T03:49:03;12.30;99.90
38084;DHT22;23894;51.466;7.444;2022-11-03T03:51:06;12.30;99.90
38084;DHT22;23894;51.466;7.444;2022-11-03T03:53:10;12.30;99.90
38084;DHT22;23894;51.466;7.444;2022-11-03T03:55:17;12.40;99.90
38084;DHT22;23894;51.466;7.444;2022-11-03T03:57:23;12.30;99.90
38084;DHT22;23894;51.466;7.444;2022-11-03T03:59:25;12.30;99.90
38084;DHT22;23894;51.466;7.444;2022-11-03T04:01:26;12.40;99.90
38084;DHT22;23894;51.466;7.444;2022-11-03T04:03:28;12.30;99.90
38084;DHT22;23894;51.466;7.444;2022-11-03T04:05:30;12.30;99.90
38084;DHT22;23894;51.466;7.444;2022-11-03T04:07:32;12.40;99.90
38084;DHT22;23894;51.466;7.444;2022-11-03T04:09:50;12.30;99.90
38084;DHT22;23894;51.466;7.444;2022-11-03T04:11:52;12.30;99.90
38084;DHT22;23894;51.466;7.444;2022-11-03T04:14:12;12.30;99.90
38084;DHT22;23894;51.466;7.444;2022-11-03T04:16:33;12.30;99.90
38084;DHT22;23894;51.466;7.444;2022-11-03T04:18:53;12.30;99.90
38084;DHT22;23894;51.466;7.444;2022-11-03T04:21:14;12.30;99.90
38084;DHT22;23894;51.466;7.444;2022-11-03T04:23:34;12.30;99.90
38084;DHT22;23894;51.466;7.444;2022-11-03T04:25:35;12.30;99.90
38084;DHT22;23894;51.466;7.444;2022-11-03T04:27:36;12.30;99.90
38084;DHT22;23894;51.466;7.444;2022-11-03T04:29:38;12.30;99.90
38084;DHT22;23894;51.466;7.444;2022-11-03T04:31:40;12.30;99.90
38084;DHT22;23894;51.466;7.444;2022-11-03T04:33:43;12.30;99.90
38084;DHT22;23894;51.466;7.444;2022-11-03T04:35:44;12.30;99.90
38084;DHT22;23894;51.466;7.444;2022-11-03T04:40:15;12.20;99.90
38084;DHT22;23894;51.466;7.444;2022-11-03T04:42:20;12.20;99.90
38084;DHT22;23894;51.466;7.444;2022-11-03T04:44:22;12.20;99.90
38084;DHT22;23894;51.466;7.444;2022-11-03T04:46:26;12.20;99.90
38084;DHT22;23894;51.466;7.444;2022-11-03T04:48:29;12.20;99.90
38084;DHT22;23894;51.466;7.444;2022-11-03T04:50:30;12.20;99.90
38084;DHT22;23894;51.466;7.444;2022-11-03T04:52:32;12.20;99.90
38084;DHT22;23894;51.466;7.444;2022-11-03T04:54:34;12.20;99.90
38084;DHT22;23894;51.466;7.444;2022-11-03T04:56:38;12.10;99.90
38084;DHT22;23894;51.466;7.444;2022-11-03T04:58:40;12.20;99.90
38084;DHT22;23894;51.466;7.444;2022-11-03T05:00:41;12.20;99.90
38084;DHT22;23894;51.466;7.444;2022-11-03T05:02:46;12.20;99.90
38084;DHT22;23894;51.466;7.444;2022-11-03T05:04:49;12.20;99.90
38084;DHT22;23894;51.466;7.444;2022-11-03T05:06:52;12.20;99.90
38084;DHT22;23894;51.466;7.444;2022-11-03T05:09:14;12.30;99.90
38084;DHT22;23894;51.466;7.444;2022-11-03T05:11:40;12.30;99.90
38084;DHT22;23894;51.466;7.444;2022-11-03T05:13:42;12.30;99.90
38084;DHT22;23894;51.466;7.444;2022-11-03T05:15:43;12.30;99.90
38084;DHT22;23894;51.466;7.444;2022-11-03T05:17:46;12.30;99.90
38084;DHT22;23894;51.466;7.444;2022-11-03T05:19:49;12.30;99.90
38084;DHT22;23894;51.466;7.444;2022-11-03T05:21:52;12.30;99.90
38084;DHT22;23894;51.466;7.444;2022-11-03T05:24:01;12.20;99.90
38084;DHT22;23894;51.466;7.444;2022-11-03T05:26:05;12.20;99.90
38084;DHT22;23894;51.466;7.444;2022-11-03T05:30:27;12.20;99.90
38084;DHT22;23894;51.466;7.444;2022-11-03T05:32:32;12.30;99.90
38084;DHT22;23894;51.466;7.444;2022-11-03T05:34:46;12.30;99.90
38084;DHT22;23894;51.466;7.444;2022-11-03T05:36:48;12.30;99.90
38084;DHT22;23894;51.466;7.444;2022-11-03T05:38:52;12.40;99.90
38084;DHT22;23894;51.466;7.444;2022-11-03T05:40:53;12.40;99.90
38084;DHT22;23894;51.466;7.444;2022-11-03T05:42:59;12.40;99.90
38084;DHT22;23894;51.466;7.444;2022-11-03T05:45:07;12.40;99.90
38084;DHT22;23894;51.466;7.444;2022-11-03T05:47:19;12.40;99.90
38084;DHT22;23894;51.466;7.444;2022-11-03T05:49:20;12.40;99.90
38084;DHT22;23894;51.466;7.444;2022-11-03T05:51:24;12.40;99.90
38084;DHT22;23894;51.466;7.444;2022-11-03T05:53:34;12.40;99.90
38084;DHT22;23894;51.466;7.444;2022-11-03T05:55:39;12.40;99.90
38084;DHT22;23894;51.466;7.444;2022-11-03T05:57:39;12.40;99.90
38084;DHT22;23894;51.466;7.444;2022-11-03T05:59:42;12.40;99.90
38084;DHT22;23894;51.466;7.444;2022-11-03T06:01:44;12.40;99.90
38084;DHT22;23894;51.466;7.444;2022-11-03T06:03:45;12.40;99.90
38084;DHT22;23894;51.466;7.444;2022-11-03T06:05:46;12.40;99.90
38084;DHT22;23894;51.466;7.444;2022-11-03T06:07:48;12.40;99.90
38084;DHT22;23894;51.466;7.444;2022-11-03T06:09:51;12.40;99.90
38084;DHT22;23894;51.466;7.444;2022-11-03T06:11:58;12.40;99.90
38084;DHT22;23894;51.466;7.444;2022-11-03T06:14:00;12.40;99.90
38084;DHT22;23894;51.466;7.444;2022-11-03T06:16:37;12.40;99.90
38084;DHT22;23894;51.466;7.444;2022-11-03T06:18:38;12.40;99.90
38084;DHT22;23894;51.466;7.444;2022-11-03T06:20:39;12.40;99.90
38084;DHT22;23894;51.466;7.444;2022-11-03T06:22:39;12.50;99.90
38084;DHT22;23894;51.466;7.444;2022-11-03T06:24:40;12.50;99.90
38084;DHT22;23894;51.466;7.444;2022-11-03T06:26:40;12.60;99.90
38084;DHT22;23894;51.466;7.444;2022-11-03T06:28:42;12.50;99.90
38084;DHT22;23894;51.466;7.444;2022-11-03T06:30:42;12.50;99.90
38084;DHT22;23894;51.466;7.444;2022-11-03T06:32:43;12.60;99.90
38084;DHT22;23894;51.466;7.444;2022-11-03T06:34:49;12.50;99.90
38084;DHT22;23894;51.466;7.444;2022-11-03T06:36:51;12.50;99.90
38084;DHT22;23894;51.466;7.444;2022-11-03T06:38:55;12.50;99.90
38084;DHT22;23894;51.466;7.444;2022-11-03T06:40:57;12.50;99.90
38084;DHT22;23894;51.466;7.444;2022-11-03T06:42:58;12.60;99.90
38084;DHT22;23894;51.466;7.444;2022-11-03T06:45:00;12.60;99.90
38084;DHT22;23894;51.466;7.444;2022-11-03T06:47:13;12.60;99.90
38084;DHT22;23894;51.466;7.444;2022-11-03T06:49:24;12.60;99.90
38084;DHT22;23894;51.466;7.444;2022-11-03T06:51:28;12.60;99.90
38084;DHT22;23894;51.466;7.444;2022-11-03T06:53:31;12.70;99.90
38084;DHT22;23894;51.466;7.444;2022-11-03T06:55:36;12.70;99.90
38084;DHT22;23894;51.466;7.444;2022-11-03T06:57:42;12.70;99.90
38084;DHT22;23894;51.466;7.444;2022-11-03T06:59:43;12.70;99.90
38084;DHT22;23894;51.466;7.444;2022-11-03T07:01:47;12.70;99.90
38084;DHT22;23894;51.466;7.444;2022-11-03T07:03:51;12.80;99.90
38084;DHT22;23894;51.466;7.444;2022-11-03T07:05:57;12.80;99.90
38084;DHT22;23894;51.466;7.444;2022-11-03T07:08:01;12.90;99.90
38084;DHT22;23894;51.466;7.444;2022-11-03T07:10:02;12.90;99.90
38084;DHT22;23894;51.466;7.444;2022-11-03T07:12:11;12.90;99.90
38084;DHT22;23894;51.466;7.444;2022-11-03T07:14:17;13.00;99.90
38084;DHT22;23894;51.466;7.444;2022-11-03T07:16:32;13.00;99.90
38084;DHT22;23894;51.466;7.444;2022-11-03T07:18:39;13.00;99.90
38084;DHT22;23894;51.466;7.444;2022-11-03T07:20:42;13.00;99.90
38084;DHT22;23894;51.466;7.444;2022-11-03T07:22:43;13.00;99.90
38084;DHT22;23894;51.466;7.444;2022-11-03T07:24:46;13.10;99.90
38084;DHT22;23894;51.466;7.444;2022-11-03T07:26:52;13.10;99.90
38084;DHT22;23894;51.466;7.444;2022-11-03T07:28:54;13.10;99.90
38084;DHT22;23894;51.466;7.444;2022-11-03T07:30:54;13.20;99.90
38084;DHT22;23894;51.466;7.444;2022-11-03T07:33:07;13.20;99.90
38084;DHT22;23894;51.466;7.444;2022-11-03T07:37:29;13.20;99.90
38084;DHT22;23894;51.466;7.444;2022-11-03T07:39:34;13.20;99.90
38084;DHT22;23894;51.466;7.444;2022-11-03T07:41:36;13.30;99.90
38084;DHT22;23894;51.466;7.444;2022-11-03T07:43:37;13.30;99.90
38084;DHT22;23894;51.466;7.444;2022-11-03T07:45:39;13.30;99.90
38084;DHT22;23894;51.466;7.444;2022-11-03T07:47:42;13.30;99.90
38084;DHT22;23894;51.466;7.444;2022-11-03T07:49:44;13.30;99.90
38084;DHT22;23894;51.466;7.444;2022-11-03T07:51:44;13.30;99.90
38084;DHT22;23894;51.466;7.444;2022-11-03T07:53:46;13.40;99.90
38084;DHT22;23894;51.466;7.444;2022-11-03T07:55:48;13.40;99.90
38084;DHT22;23894;51.466;7.444;2022-11-03T07:57:49;13.30;99.90
38084;DHT22;23894;51.466;7.444;2022-11-03T07:59:51;13.40;99.90
38084;DHT22;23894;51.466;7.444;2022-11-03T08:01:57;13.40;99.90
38084;DHT22;23894;51.466;7.444;2022-11-03T08:04:02;13.40;99.90
38084;DHT22;23894;51.466;7.444;2022-11-03T08:06:04;13.50;99.90
38084;DHT22;23894;51.466;7.444;2022-11-03T08:08:05;13.50;99.90
38084;DHT22;23894;51.466;7.444;2022-11-03T08:10:05;13.50;99.90
38084;DHT22;23894;51.466;7.444;2022-11-03T08:12:06;13.60;99.90
38084;DHT22;23894;51.466;7.444;2022-11-03T08:14:07;13.60;99.90
38084;DHT22;23894;51.466;7.444;2022-11-03T08:16:08;13.60;99.90
38084;DHT22;23894;51.466;7.444;2022-11-03T08:18:08;13.70;99.90
38084;DHT22;23894;51.466;7.444;2022-11-03T08:20:09;13.70;99.90
38084;DHT22;23894;51.466;7.444;2022-11-03T08:22:10;13.70;99.90
38084;DHT22;23894;51.466;7.444;2022-11-03T08:24:11;13.80;99.90
38084;DHT22;23894;51.466;7.444;2022-11-03T08:26:11;13.80;99.90
38084;DHT22;23894;51.466;7.444;2022-11-03T08:28:11;13.80;99.90
38084;DHT22;23894;51.466;7.444;2022-11-03T08:30:12;13.90;99.90
38084;DHT22;23894;51.466;7.444;2022-11-03T08:32:12;13.90;99.90
38084;DHT22;23894;51.466;7.444;2022-11-03T08:34:13;13.90;99.90
38084;DHT22;23894;51.466;7.444;2022-11-03T08:36:14;14.00;99.90
38084;DHT22;23894;51.466;7.444;2022-11-03T08:38:14;14.00;99.90
38084;DHT22;23894;51.466;7.444;2022-11-03T08:40:15;14.00;99.90
38084;DHT22;23894;51.466;7.444;2022-11-03T08:42:15;14.00;99.90
38084;DHT22;23894;51.466;7.444;2022-11-03T08:44:16;14.00;99.90
38084;DHT22;23894;51.466;7.444;2022-11-03T08:46:16;14.10;99.90
38084;DHT22;23894;51.466;7.444;2022-11-03T08:48:17;14.10;99.90
38084;DHT22;23894;51.466;7.444;2022-11-03T08:50:18;14.10;99.90
38084;DHT22;23894;51.466;7.444;2022-11-03T08:52:18;14.10;99.90
38084;DHT22;23894;51.466;7.444;2022-11-03T08:54:19;14.10;99.90
38084;DHT22;23894;51.466;7.444;2022-11-03T08:56:19;14.20;99.90
38084;DHT22;23894;51.466;7.444;2022-11-03T08:58:21;14.20;99.90
38084;DHT22;23894;51.466;7.444;2022-11-03T09:00:21;14.20;99.90
38084;DHT22;23894;51.466;7.444;2022-11-03T09:02:22;14.30;99.90
38084;DHT22;23894;51.466;7.444;2022-11-03T09:04:22;14.30;99.90
38084;DHT22;23894;51.466;7.444;2022-11-03T09:06:23;14.30;99.90
38084;DHT22;23894;51.466;7.444;2022-11-03T09:08:23;14.40;99.90
38084;DHT22;23894;51.466;7.444;2022-11-03T09:10:24;14.40;99.90
38084;DHT22;23894;51.466;7.444;2022-11-03T09:12:25;14.50;99.90
38084;DHT22;23894;51.466;7.444;2022-11-03T09:14:25;14.50;99.90
38084;DHT22;23894;51.466;7.444;2022-11-03T09:16:26;14.60;99.90
38084;DHT22;23894;51.466;7.444;2022-11-03T09:18:26;14.60;99.90
38084;DHT22;23894;51.466;7.444;2022-11-03T09:20:27;14.70;99.90
38084;DHT22;23894;51.466;7.444;2022-11-03T09:22:28;14.70;99.90
38084;DHT22;23894;51.466;7.444;2022-11-03T09:24:28;14.80;99.90
38084;DHT22;23894;51.466;7.444;2022-11-03T09:26:30;14.90;99.90
38084;DHT22;23894;51.466;7.444;2022-11-03T09:28:30;14.90;99.90
38084;DHT22;23894;51.466;7.444;2022-11-03T09:30:31;15.10;99.90
38084;DHT22;23894;51.466;7.444;2022-11-03T09:32:31;15.20;99.90
38084;DHT22;23894;51.466;7.444;2022-11-03T09:34:32;15.30;99.90
38084;DHT22;23894;51.466;7.444;2022-11-03T09:36:33;15.40;99.90
38084;DHT22;23894;51.466;7.444;2022-11-03T09:38:33;15.40;99.90
38084;DHT22;23894;51.466;7.444;2022-11-03T09:40:34;15.50;99.90
38084;DHT22;23894;51.466;7.444;2022-11-03T09:42:35;15.50;99.90
38084;DHT22;23894;51.466;7.444;2022-11-03T09:44:37;15.60;99.90
38084;DHT22;23894;51.466;7.444;2022-11-03T09:46:38;15.60;99.90
38084;DHT22;23894;51.466;7.444;2022-11-03T09:48:39;15.60;99.90
38084;DHT22;23894;51.466;7.444;2022-11-03T09:50:39;15.60;99.90
38084;DHT22;23894;51.466;7.444;2022-11-03T09:52:40;15.60;99.90
38084;DHT22;23894;51.466;7.444;2022-11-03T09:54:41;15.60;99.90
38084;DHT22;23894;51.466;7.444;2022-11-03T09:56:42;15.60;99.90
38084;DHT22;23894;51.466;7.444;2022-11-03T09:58:42;15.70;99.90
38084;DHT22;23894;51.466;7.444;2022-11-03T10:00:43;15.70;99.90
38084;DHT22;23894;51.466;7.444;2022-11-03T10:02:44;15.80;99.90
38084;DHT22;23894;51.466;7.444;2022-11-03T10:04:45;15.70;99.90
38084;DHT22;23894;51.466;7.444;2022-11-03T10:06:45;15.80;99.90
38084;DHT22;23894;51.466;7.444;2022-11-03T10:08:46;15.80;99.90
38084;DHT22;23894;51.466;7.444;2022-11-03T10:10:48;15.80;99.90
38084;DHT22;23894;51.466;7.444;2022-11-03T10:12:49;15.80;99.90
38084;DHT22;23894;51.466;7.444;2022-11-03T10:14:53;15.90;99.90
38084;DHT22;23894;51.466;7.444;2022-11-03T10:16:58;15.90;99.90
38084;DHT22;23894;51.466;7.444;2022-11-03T10:19:01;15.80;99.90
38084;DHT22;23894;51.466;7.444;2022-11-03T10:21:04;15.80;99.90
38084;DHT22;23894;51.466;7.444;2022-11-03T10:23:07;15.80;99.90
38084;DHT22;23894;51.466;7.444;2022-11-03T10:25:27;15.80;99.90
38084;DHT22;23894;51.466;7.444;2022-11-03T10:27:29;15.80;99.90
38084;DHT22;23894;51.466;7.444;2022-11-03T10:29:29;15.80;99.90
38084;DHT22;23894;51.466;7.444;2022-11-03T10:31:37;15.80;99.90
38084;DHT22;23894;51.466;7.444;2022-11-03T10:33:52;15.80;99.90
38084;DHT22;23894;51.466;7.444;2022-11-03T10:35:53;15.80;99.90
38084;DHT22;23894;51.466;7.444;2022-11-03T10:37:54;15.70;99.90
38084;DHT22;23894;51.466;7.444;2022-11-03T10:39:56;15.70;99.90
38084;DHT22;23894;51.466;7.444;2022-11-03T10:41:59;15.70;99.90
38084;DHT22;23894;51.466;7.444;2022-11-03T10:46:18;15.70;99.90
38084;DHT22;23894;51.466;7.444;2022-11-03T10:48:18;15.70;99.90
38084;DHT22;23894;51.466;7.444;2022-11-03T10:50:21;15.70;99.90
38084;DHT22;23894;51.466;7.444;2022-11-03T10:52:24;15.70;99.90
38084;DHT22;23894;51.466;7.444;2022-11-03T10:54:25;15.70;99.90
38084;DHT22;23894;51.466;7.444;2022-11-03T10:56:27;15.70;99.90
38084;DHT22;23894;51.466;7.444;2022-11-03T10:58:29;15.80;99.90
38084;DHT22;23894;51.466;7.444;2022-11-03T11:00:30;15.80;99.90
38084;DHT22;23894;51.466;7.444;2022-11-03T11:02:31;15.90;99.90
38084;DHT22;23894;51.466;7.444;2022-11-03T11:04:32;15.80;99.90
38084;DHT22;23894;51.466;7.444;2022-11-03T11:06:33;15.90;99.90
38084;DHT22;23894;51.466;7.444;2022-11-03T11:08:33;15.90;99.90
38084;DHT22;23894;51.466;7.444;2022-11-03T11:10:34;15.90;99.90
38084;DHT22;23894;51.466;7.444;2022-11-03T11:12:35;15.90;99.90
38084;DHT22;23894;51.466;7.444;2022-11-03T11:14:37;15.90;99.90
38084;DHT22;23894;51.466;7.444;2022-11-03T11:16:52;15.90;99.90
38084;DHT22;23894;51.466;7.444;2022-11-03T11:20:54;15.80;99.90
38084;DHT22;23894;51.466;7.444;2022-11-03T11:28:12;15.80;99.90
38084;DHT22;23894;51.466;7.444;2022-11-03T11:34:41;15.90;99.90
38084;DHT22;23894;51.466;7.444;2022-11-03T11:36:42;16.00;99.90
38084;DHT22;23894;51.466;7.444;2022-11-03T11:38:53;16.20;99.90
38084;DHT22;23894;51.466;7.444;2022-11-03T11:40:56;16.40;99.90
38084;DHT22;23894;51.466;7.444;2022-11-03T11:45:03;16.80;99.90
38084;DHT22;23894;51.466;7.444;2022-11-03T11:49:27;17.20;99.90
38084;DHT22;23894;51.466;7.444;2022-11-03T11:51:31;17.50;99.90
38084;DHT22;23894;51.466;7.444;2022-11-03T11:53:38;17.80;99.90
38084;DHT22;23894;51.466;7.444;2022-11-03T11:55:46;18.20;99.90
38084;DHT22;23894;51.466;7.444;2022-11-03T11:57:47;18.50;99.90
38084;DHT22;23894;51.466;7.444;2022-11-03T11:59:48;18.80;99.90
38084;DHT22;23894;51.466;7.444;2022-11-03T12:01:51;19.10;99.90
38084;DHT22;23894;51.466;7.444;2022-11-03T12:03:54;19.50;99.90
38084;DHT22;23894;51.466;7.444;2022-11-03T12:05:56;19.90;99.90
38084;DHT22;23894;51.466;7.444;2022-11-03T12:07:56;20.30;99.90
38084;DHT22;23894;51.466;7.444;2022-11-03T12:10:11;20.80;99.90
38084;DHT22;23894;51.466;7.444;2022-11-03T12:12:32;20.80;99.90
38084;DHT22;23894;51.466;7.444;2022-11-03T12:14:36;20.50;99.90
38084;DHT22;23894;51.466;7.444;2022-11-03T12:16:37;20.40;99.90
38084;DHT22;23894;51.466;7.444;2022-11-03T12:18:39;20.40;99.90
38084;DHT22;23894;51.466;7.444;2022-11-03T12:20:45;20.50;99.90
38084;DHT22;23894;51.466;7.444;2022-11-03T14:18:32;16.30;99.90
38084;DHT22;23894;51.466;7.444;2022-11-03T14:20:33;16.30;99.90
38084;DHT22;23894;51.466;7.444;2022-11-03T14:22:33;16.20;99.90
38084;DHT22;23894;51.466;7.444;2022-11-03T14:24:34;16.20;99.90
38084;DHT22;23894;51.466;7.444;2022-11-03T14:26:34;16.10;99.90
38084;DHT22;23894;51.466;7.444;2022-11-03T14:28:35;16.10;99.90
38084;DHT22;23894;51.466;7.444;2022-11-03T14:30:35;16.10;99.90
38084;DHT22;23894;51.466;7.444;2022-11-03T14:32:36;16.00;99.90
38084;DHT22;23894;51.466;7.444;2022-11-03T14:34:36;16.00;99.90
38084;DHT22;23894;51.466;7.444;2022-11-03T14:36:37;15.90;99.90
38084;DHT22;23894;51.466;7.444;2022-11-03T14:38:38;15.90;99.90
38084;DHT22;23894;51.466;7.444;2022-11-03T14:40:38;15.90;99.90
38084;DHT22;23894;51.466;7.444;2022-11-03T14:42:57;15.90;99.90
38084;DHT22;23894;51.466;7.444;2022-11-03T14:44:58;15.80;99.90
38084;DHT22;23894;51.466;7.444;2022-11-03T14:46:58;15.80;99.90
38084;DHT22;23894;51.466;7.444;2022-11-03T14:49:00;15.80;99.90
38084;DHT22;23894;51.466;7.444;2022-11-03T14:51:01;15.80;99.90
38084;DHT22;23894;51.466;7.444;2022-11-03T14:53:01;15.70;99.90
38084;DHT22;23894;51.466;7.444;2022-11-03T14:55:02;15.70;99.90
38084;DHT22;23894;51.466;7.444;2022-11-03T14:57:03;15.80;99.90
38084;DHT22;23894;51.466;7.444;2022-11-03T14:59:04;15.80;99.90
38084;DHT22;23894;51.466;7.444;2022-11-03T15:01:04;15.80;99.90
38084;DHT22;23894;51.466;7.444;2022-11-03T15:03:05;15.80;99.90
38084;DHT22;23894;51.466;7.444;2022-11-03T15:05:05;15.70;99.90
38084;DHT22;23894;51.466;7.444;2022-11-03T15:07:06;15.70;99.90
38084;DHT22;23894;51.466;7.444;2022-11-03T15:09:06;15.60;99.90
38084;DHT22;23894;51.466;7.444;2022-11-03T15:11:07;15.60;99.90
38084;DHT22;23894;51.466;7.444;2022-11-03T15:13:09;15.60;99.90
38084;DHT22;23894;51.466;7.444;2022-11-03T15:15:10;15.60;99.90
38084;DHT22;23894;51.466;7.444;2022-11-03T15:17:10;15.60;99.90
38084;DHT22;23894;51.466;7.444;2022-11-03T15:19:11;15.50;99.90
38084;DHT22;23894;51.466;7.444;2022-11-03T15:21:11;15.50;99.90
38084;DHT22;23894;51.466;7.444;2022-11-03T15:23:12;15.40;99.90
38084;DHT22;23894;51.466;7.444;2022-11-03T15:25:12;15.10;99.90
38084;DHT22;23894;51.466;7.444;2022-11-03T15:27:13;15.00;99.90
38084;DHT22;23894;51.466;7.444;2022-11-03T15:29:14;14.90;99.90
38084;DHT22;23894;51.466;7.444;2022-11-03T15:31:14;14.80;99.90
38084;DHT22;23894;51.466;7.444;2022-11-03T15:33:15;14.80;99.90
38084;DHT22;23894;51.466;7.444;2022-11-03T15:35:15;14.80;99.90
38084;DHT22;23894;51.466;7.444;2022-11-03T15:37:16;14.80;99.90